Time;durP1;ratioP1;P1;durP2;ratioP2;P2;SDS_P1;SDS_P2;PMS_P1;PMS_P2;Temp;Humidity;BMP_temperature;BMP_pressure;BME280_temperature;BME280_humidity;BME280_pressure;Samples;Min_cycle;Max_cycle;Signal;HPM_P1;HPM_P2
2021/12/30 00:02:14;;;;;;;55.85;21.40;;;;;;;10.39;100.00;101038.69;5042589;28;20571;-71
2021/12/30 00:04:39;;;;;;;58.28;22.10;;;;;;;10.38;100.00;101036.97;5042110;28;20029;-70
2021/12/30 00:07:04;;;;;;;55.53;20.45;;;;;;;10.39;100.00;101033.19;5042854;28;20459;-70
2021/12/30 00:09:30;;;;;;;53.33;21.02;;;;;;;10.39;100.00;101035.94;5043737;28;20104;-70
2021/12/30 00:11:56;;;;;;;64.78;21.65;;;;;;;10.37;100.00;101034.47;5041913;28;20356;-69
2021/12/30 00:14:21;;;;;;;54.70;20.10;;;;;;;10.39;100.00;101037.81;5042477;28;20051;-71
2021/12/30 00:16:47;;;;;;;45.92;17.15;;;;;;;10.36;100.00;101046.53;5041331;28;20014;-70
2021/12/30 00:19:12;;;;;;;47.47;16.25;;;;;;;10.37;100.00;101051.78;5041986;28;20460;-70
2021/12/30 00:21:38;;;;;;;44.50;14.45;;;;;;;10.38;100.00;101041.63;5042625;28;20456;-70
2021/12/30 00:24:04;;;;;;;60.00;15.85;;;;;;;10.37;100.00;101042.69;5042781;28;20028;-71
2021/12/30 00:26:30;;;;;;;53.78;14.68;;;;;;;10.44;100.00;101046.25;5043027;28;20036;-70
2021/12/30 00:28:55;;;;;;;53.90;12.68;;;;;;;10.42;100.00;101047.53;5042650;28;20096;-71
2021/12/30 00:31:20;;;;;;;45.40;13.57;;;;;;;10.47;100.00;101044.94;5042122;28;20464;-70
2021/12/30 00:33:45;;;;;;;50.28;14.00;;;;;;;10.51;100.00;101043.44;5041833;28;20040;-71
2021/12/30 00:36:13;;;;;;;50.33;13.07;;;;;;;10.66;100.00;101046.66;5041805;28;20032;-71
2021/12/30 00:38:40;;;;;;;45.63;14.07;;;;;;;10.65;100.00;101055.97;5042673;28;20102;-71
2021/12/30 00:41:07;;;;;;;44.33;13.43;;;;;;;10.67;100.00;101055.75;5041773;28;20032;-70
2021/12/30 00:43:32;;;;;;;47.15;13.43;;;;;;;10.67;100.00;101053.00;5042661;28;20025;-70
2021/12/30 00:45:57;;;;;;;49.03;13.48;;;;;;;10.69;100.00;101059.94;5042866;28;20135;-70
2021/12/30 00:48:23;;;;;;;48.67;14.52;;;;;;;10.69;100.00;101075.56;5041689;28;20037;-71
2021/12/30 00:50:48;;;;;;;40.40;13.80;;;;;;;10.69;100.00;101068.16;5042129;28;20033;-71
2021/12/30 00:53:14;;;;;;;49.97;14.50;;;;;;;10.75;100.00;101069.19;5042281;28;20029;-71
2021/12/30 00:55:41;;;;;;;45.50;13.98;;;;;;;10.75;100.00;101070.03;5041955;28;20279;-71
2021/12/30 00:58:07;;;;;;;43.47;12.52;;;;;;;10.75;100.00;101077.44;5041547;28;20511;-71
2021/12/30 01:00:34;;;;;;;44.80;13.18;;;;;;;10.76;100.00;101070.88;5042044;28;20493;-71
2021/12/30 01:02:59;;;;;;;46.88;14.70;;;;;;;10.75;100.00;101075.53;5043182;28;20434;-70
2021/12/30 01:05:25;;;;;;;47.63;14.40;;;;;;;10.74;100.00;101068.31;5040422;28;20074;-71
2021/12/30 01:07:51;;;;;;;41.47;13.23;;;;;;;10.75;100.00;101069.19;5042439;28;20070;-71
2021/12/30 01:10:20;;;;;;;52.92;13.10;;;;;;;10.75;100.00;101066.44;5041713;28;20040;-71
2021/12/30 01:12:46;;;;;;;49.53;13.75;;;;;;;10.74;100.00;101068.31;5041731;28;20025;-71
2021/12/30 01:15:17;;;;;;;49.05;13.80;;;;;;;10.74;100.00;101071.06;5041508;28;20021;-71
2021/12/30 01:20:11;;;;;;;49.00;13.30;;;;;;;10.80;100.00;101078.44;5040517;28;20412;-71
2021/12/30 01:22:37;;;;;;;52.65;12.07;;;;;;;10.79;100.00;101082.22;5061904;28;20021;-71
2021/12/30 01:25:07;;;;;;;52.50;13.27;;;;;;;10.80;100.00;101080.34;5061644;28;20021;-65
2021/12/30 01:27:32;;;;;;;44.03;12.63;;;;;;;10.81;100.00;101073.78;5061269;28;20017;-70
2021/12/30 01:29:57;;;;;;;45.78;12.70;;;;;;;10.84;100.00;101084.28;5061969;28;20162;-71
2021/12/30 01:32:22;;;;;;;48.33;12.40;;;;;;;10.86;100.00;101083.03;5061648;28;20228;-70
2021/12/30 01:34:48;;;;;;;46.88;13.25;;;;;;;10.86;100.00;101082.19;5060560;28;20090;-71
2021/12/30 01:37:18;;;;;;;40.13;12.00;;;;;;;10.87;100.00;101083.84;5061949;28;20031;-70
2021/12/30 01:39:43;;;;;;;40.47;10.25;;;;;;;10.90;100.00;101081.50;5061950;28;20028;-70
2021/12/30 01:42:10;;;;;;;45.80;11.13;;;;;;;10.91;100.00;101080.44;5061612;28;20371;-70
2021/12/30 01:44:35;;;;;;;40.63;11.70;;;;;;;10.93;100.00;101073.84;5062421;28;20146;-70
2021/12/30 01:47:02;;;;;;;45.75;11.80;;;;;;;10.96;100.00;101071.50;5062402;28;20469;-71
2021/12/30 01:49:28;;;;;;;36.35;10.57;;;;;;;10.98;100.00;101066.59;5061399;28;20039;-71
2021/12/30 01:51:54;;;;;;;51.00;10.75;;;;;;;10.99;100.00;101064.69;5061787;28;20415;-70
2021/12/30 01:54:22;;;;;;;40.30;10.48;;;;;;;11.04;100.00;101067.59;5061584;28;20044;-71
2021/12/30 01:56:50;;;;;;;45.47;10.67;;;;;;;11.10;100.00;101072.19;5061044;28;20021;-70
2021/12/30 01:59:15;;;;;;;49.17;11.70;;;;;;;11.09;100.00;101065.00;5061500;28;20236;-71
2021/12/30 02:01:41;;;;;;;45.35;12.35;;;;;;;11.15;100.00;101072.34;5061349;28;20511;-70
2021/12/30 02:04:06;;;;;;;39.03;11.00;;;;;;;11.16;100.00;101061.13;5031248;28;20128;-70
2021/12/30 02:06:31;;;;;;;49.38;14.23;;;;;;;11.18;100.00;101056.22;5021907;28;20032;-66
2021/12/30 02:08:59;;;;;;;40.25;12.73;;;;;;;11.20;100.00;101057.91;5022216;28;20022;-70
2021/12/30 02:11:25;;;;;;;43.75;13.85;;;;;;;11.27;100.00;101054.03;5021287;28;20368;-70
2021/12/30 02:13:51;;;;;;;44.75;15.32;;;;;;;11.29;100.00;101064.78;5021663;28;20033;-71
2021/12/30 02:16:18;;;;;;;47.53;14.43;;;;;;;11.34;100.00;101071.25;5021410;28;20017;-70
2021/12/30 02:18:44;;;;;;;46.92;14.30;;;;;;;11.38;100.00;101083.50;5024529;28;20228;-70
2021/12/30 02:21:10;;;;;;;48.40;15.07;;;;;;;11.40;100.00;101088.75;5025008;28;20029;-70
2021/12/30 02:23:36;;;;;;;46.45;14.00;;;;;;;11.41;100.00;101088.53;5025297;28;20029;-70
2021/12/30 02:26:11;;;;;;;45.72;14.73;;;;;;;11.48;100.00;101095.88;5024849;28;20397;-70
2021/12/30 02:28:37;;;;;;;50.25;15.18;;;;;;;11.47;100.00;101095.03;5025252;28;20059;-70
2021/12/30 02:31:25;;;;;;;49.47;16.75;;;;;;;11.47;100.00;101097.78;5024748;28;20079;-68
2021/12/30 02:33:50;;;;;;;44.53;14.13;;;;;;;11.47;100.00;101095.03;5024746;28;20025;-70
2021/12/30 02:36:24;;;;;;;39.92;15.23;;;;;;;11.46;100.00;101087.00;5023202;28;20030;-71
2021/12/30 02:38:49;;;;;;;42.35;14.30;;;;;;;11.51;100.00;101099.00;5024804;28;20064;-70
2021/12/30 02:41:18;;;;;;;45.60;14.52;;;;;;;11.48;100.00;101087.59;5024595;28;20060;-70
2021/12/30 02:43:47;;;;;;;38.90;14.73;;;;;;;11.50;100.00;101088.22;5033984;28;20163;-71
2021/12/30 02:46:13;;;;;;;41.33;15.18;;;;;;;11.48;100.00;101087.59;5044513;28;20435;-70
2021/12/30 02:48:41;;;;;;;48.63;15.50;;;;;;;11.49;100.00;101086.53;5044422;28;20025;-71
2021/12/30 02:51:08;;;;;;;46.20;15.40;;;;;;;11.50;100.00;101085.47;5044129;28;20111;-70
2021/12/30 02:53:34;;;;;;;47.50;14.23;;;;;;;11.50;100.00;101085.47;5044348;28;20087;-70
2021/12/30 02:55:59;;;;;;;41.85;15.38;;;;;;;11.50;100.00;101088.22;5044641;28;20024;-71
2021/12/30 02:58:25;;;;;;;43.20;15.27;;;;;;;11.51;100.00;101088.00;5044301;28;20059;-71
2021/12/30 03:01:21;;;;;;;37.38;13.52;;;;;;;11.56;100.00;101095.56;5043708;28;20267;-71
2021/12/30 03:03:47;;;;;;;35.25;13.98;;;;;;;11.56;100.00;101101.06;5038834;28;20049;-71
2021/12/30 03:06:14;;;;;;;43.50;16.30;;;;;;;11.55;100.00;101096.59;5049358;22;20144;-71
2021/12/30 03:08:40;;;;;;;42.97;14.48;;;;;;;11.57;100.00;101100.81;5044721;28;20028;-71
2021/12/30 03:11:07;;;;;;;39.03;14.32;;;;;;;11.56;100.00;101109.31;5044078;28;20036;-71
2021/12/30 03:13:33;;;;;;;36.85;13.45;;;;;;;11.58;100.00;101107.16;5044563;28;20126;-70
2021/12/30 03:16:03;;;;;;;37.40;13.80;;;;;;;11.57;100.00;101103.56;5044624;28;20051;-70
2021/12/30 03:18:31;;;;;;;38.13;14.80;;;;;;;11.55;100.00;101099.34;5044638;28;20171;-70
2021/12/30 03:20:57;;;;;;;37.53;14.13;;;;;;;11.55;100.00;101102.09;5044987;28;20375;-70
2021/12/30 03:23:22;;;;;;;39.33;13.27;;;;;;;11.54;100.00;101108.69;5044521;28;20036;-71
2021/12/30 03:25:47;;;;;;;31.38;12.02;;;;;;;11.51;100.00;101100.91;5043657;28;20032;-70
2021/12/30 03:28:13;;;;;;;32.08;12.38;;;;;;;11.54;100.00;101101.28;5043120;28;20009;-70
2021/12/30 03:30:38;;;;;;;28.67;13.13;;;;;;;11.57;100.00;101097.22;5043950;28;20043;-71
2021/12/30 03:33:03;;;;;;;29.05;11.38;;;;;;;11.55;100.00;101100.19;5043101;28;20074;-70
2021/12/30 03:35:29;;;;;;;34.28;11.38;;;;;;;11.54;100.00;101109.53;5044437;28;20066;-71
2021/12/30 03:37:55;;;;;;;26.48;11.57;;;;;;;11.53;100.00;101105.09;5044653;28;20062;-71
2021/12/30 03:40:20;;;;;;;26.10;11.18;;;;;;;11.57;100.00;101105.50;5043208;28;20033;-71
2021/12/30 03:42:46;;;;;;;30.95;11.38;;;;;;;11.53;100.00;101107.00;5043765;28;20456;-71
2021/12/30 03:45:13;;;;;;;28.23;11.70;;;;;;;11.52;100.00;101102.59;5043655;28;20039;-70
2021/12/30 03:47:43;;;;;;;26.15;11.00;;;;;;;11.52;100.00;101108.94;5042997;28;20021;-71
2021/12/30 03:50:18;;;;;;;29.08;11.27;;;;;;;11.51;100.00;101106.41;5043258;28;20033;-71
2021/12/30 03:52:44;;;;;;;24.23;10.73;;;;;;;11.51;100.00;101095.41;5044542;28;20017;-71
2021/12/30 03:55:09;;;;;;;23.20;10.32;;;;;;;11.51;100.00;101095.41;5043460;28;20029;-70
2021/12/30 03:57:35;;;;;;;21.20;9.43;;;;;;;11.53;100.00;101094.09;5043089;28;20364;-71
2021/12/30 04:00:00;;;;;;;20.02;10.10;;;;;;;11.55;100.00;101085.59;5044088;28;20112;-71
2021/12/30 04:02:25;;;;;;;23.10;10.35;;;;;;;11.59;100.00;101089.56;5043468;28;20017;-71
2021/12/30 04:04:50;;;;;;;19.10;9.63;;;;;;;11.61;100.00;101088.28;5042622;28;20029;-71
2021/12/30 04:07:16;;;;;;;20.23;10.00;;;;;;;11.63;100.00;101093.56;5043426;28;20167;-71
2021/12/30 04:09:42;;;;;;;19.10;9.95;;;;;;;11.62;100.00;101091.88;5043535;28;20021;-71
2021/12/30 04:12:08;;;;;;;16.95;9.13;;;;;;;11.70;100.00;101094.28;5042562;28;20040;-71
2021/12/30 04:14:33;;;;;;;21.27;11.80;;;;;;;11.73;100.00;101099.34;5043158;28;20395;-71
2021/12/30 04:16:58;;;;;;;19.73;10.80;;;;;;;11.75;100.00;101105.44;5043398;28;20111;-71
2021/12/30 04:19:24;;;;;;;23.10;11.13;;;;;;;11.78;100.00;101109.66;5042219;28;20029;-71
2021/12/30 04:21:54;;;;;;;22.52;11.30;;;;;;;11.79;100.00;101108.56;5043578;28;20159;-71
2021/12/30 04:24:20;;;;;;;23.52;12.77;;;;;;;11.84;100.00;101111.50;5043525;28;20082;-71
2021/12/30 04:26:45;;;;;;;24.80;13.25;;;;;;;11.85;100.00;101116.75;5041046;28;20031;-71
2021/12/30 04:29:10;;;;;;;26.15;15.52;;;;;;;11.89;100.00;101120.75;5043535;28;20021;-70
2021/12/30 04:31:36;;;;;;;29.30;17.15;;;;;;;11.93;100.00;101121.13;5041888;28;20021;-71
2021/12/30 04:34:01;;;;;;;28.50;16.90;;;;;;;11.97;100.00;101119.59;5042320;28;20271;-65
2021/12/30 04:36:26;;;;;;;30.92;18.65;;;;;;;11.97;100.00;101110.50;5043074;28;20341;-71
2021/12/30 04:38:51;;;;;;;33.70;19.58;;;;;;;11.99;100.00;101113.84;5042698;28;20029;-70
2021/12/30 04:41:18;;;;;;;33.92;19.38;;;;;;;12.08;100.00;101112.44;5042325;28;20464;-71
2021/12/30 04:43:43;;;;;;;34.53;21.67;;;;;;;12.04;100.00;101113.97;5042985;28;20531;-71
2021/12/30 04:46:08;;;;;;;36.38;22.40;;;;;;;12.09;100.00;101125.13;5042742;28;20113;-71
2021/12/30 04:48:34;;;;;;;36.80;23.45;;;;;;;12.09;100.00;101114.13;5042110;28;20021;-70
2021/12/30 04:50:59;;;;;;;37.03;23.85;;;;;;;12.22;100.00;101121.34;5042686;28;20268;-71
2021/12/30 04:53:25;;;;;;;40.65;24.88;;;;;;;12.11;100.00;101126.56;5042507;28;20029;-71
2021/12/30 04:55:50;;;;;;;36.58;23.50;;;;;;;12.18;100.00;101124.56;5042373;28;20029;-71
2021/12/30 04:58:16;;;;;;;40.42;24.55;;;;;;;12.22;100.00;101121.34;5042290;28;20078;-71
2021/12/30 05:00:42;;;;;;;38.85;25.20;;;;;;;12.21;100.00;101117.72;5042863;28;20021;-71
2021/12/30 05:03:12;;;;;;;34.55;23.27;;;;;;;12.23;100.00;101123.88;5041605;28;20568;-72
2021/12/30 05:05:45;;;;;;;34.70;23.33;;;;;;;12.29;100.00;101130.34;5042558;28;20108;-71
2021/12/30 05:08:13;;;;;;;32.90;19.45;;;;;;;12.31;100.00;101125.44;5041960;28;20095;-71
2021/12/30 05:10:39;;;;;;;26.90;18.85;;;;;;;12.42;100.00;101119.97;5041836;28;20455;-71
2021/12/30 05:13:06;;;;;;;32.25;20.92;;;;;;;12.37;100.00;101119.84;5042384;28;20028;-71
2021/12/30 05:15:32;;;;;;;29.40;19.88;;;;;;;12.36;100.00;101115.38;5042735;28;20075;-71
2021/12/30 05:17:57;;;;;;;26.25;18.55;;;;;;;12.46;100.00;101120.31;5041950;28;20016;-71
2021/12/30 05:20:23;;;;;;;27.67;18.88;;;;;;;12.45;100.00;101124.16;5041860;28;20112;-71
2021/12/30 05:22:48;;;;;;;23.92;16.70;;;;;;;12.43;100.00;101127.16;5042172;28;20059;-72
2021/12/30 05:25:15;;;;;;;23.58;17.15;;;;;;;12.45;100.00;101127.75;5041856;28;20033;-71
2021/12/30 05:27:41;;;;;;;22.02;14.70;;;;;;;12.54;100.00;101128.25;5042111;28;20025;-71
2021/12/30 05:30:09;;;;;;;20.88;15.45;;;;;;;12.60;100.00;101137.47;5042394;28;20388;-71
2021/12/30 05:32:34;;;;;;;22.55;16.42;;;;;;;12.57;100.00;101154.47;5041795;28;20070;-71
2021/12/30 05:35:01;;;;;;;22.52;15.43;;;;;;;12.63;100.00;101139.75;5042422;28;20029;-70
2021/12/30 05:37:26;;;;;;;17.67;12.73;;;;;;;12.75;100.00;101154.38;5041879;28;20438;-71
2021/12/30 05:39:52;;;;;;;22.63;16.00;;;;;;;12.72;100.00;101149.34;5041437;28;20033;-71
2021/12/30 05:42:17;;;;;;;20.85;15.82;;;;;;;12.69;100.00;101158.09;5041287;28;20078;-71
2021/12/30 05:44:43;;;;;;;21.73;15.10;;;;;;;12.78;100.00;101170.47;5042259;28;20013;-71
2021/12/30 05:47:08;;;;;;;21.42;15.02;;;;;;;12.81;100.00;101169.13;5041671;28;20068;-71
2021/12/30 05:49:33;;;;;;;20.15;14.80;;;;;;;12.90;100.00;101175.97;5041200;28;20029;-71
2021/12/30 05:51:59;;;;;;;21.63;16.27;;;;;;;12.79;100.00;101179.56;5045738;28;20025;-71
2021/12/30 05:54:24;;;;;;;19.20;14.93;;;;;;;12.81;100.00;101178.25;5045731;28;20040;-71
2021/12/30 05:56:49;;;;;;;17.73;13.05;;;;;;;12.96;100.00;101173.09;5044959;28;20032;-71
2021/12/30 05:59:14;;;;;;;19.45;12.65;;;;;;;12.84;100.00;101176.94;5045540;28;20060;-71
2021/12/30 06:01:40;;;;;;;16.50;13.07;;;;;;;12.88;100.00;101181.75;5045805;28;20053;-70
2021/12/30 06:04:05;;;;;;;15.52;12.23;;;;;;;12.84;100.00;101172.25;5044704;28;20029;-70
2021/12/30 06:06:30;;;;;;;15.48;11.73;;;;;;;12.82;100.00;101174.41;5045732;28;20041;-71
2021/12/30 06:08:56;;;;;;;13.05;10.60;;;;;;;13.01;100.00;101171.56;5045682;28;20026;-71
2021/12/30 06:11:21;;;;;;;11.73;9.57;;;;;;;12.92;100.00;101165.53;5044746;28;20558;-71
2021/12/30 06:13:47;;;;;;;12.60;9.52;;;;;;;12.85;100.00;101162.06;5045127;28;20037;-71
2021/12/30 06:16:12;;;;;;;11.35;7.57;;;;;;;12.92;100.00;101176.56;5045004;28;20025;-71
2021/12/30 06:18:37;;;;;;;10.98;7.35;;;;;;;12.94;100.00;101178.03;5045008;28;20507;-71
2021/12/30 06:21:02;;;;;;;9.48;6.30;;;;;;;12.98;100.00;101176.47;5043669;28;20056;-70
2021/12/30 06:23:28;;;;;;;9.63;6.05;;;;;;;12.93;100.00;101170.84;5045773;28;20426;-71
2021/12/30 06:25:53;;;;;;;8.32;5.47;;;;;;;12.88;100.00;101179.00;5045004;28;20112;-71
2021/12/30 06:28:18;;;;;;;9.45;6.05;;;;;;;12.93;100.00;101176.34;5044810;28;20386;-71
2021/12/30 06:30:44;;;;;;;9.90;6.20;;;;;;;12.89;100.00;101171.56;5045321;28;20033;-71
2021/12/30 06:33:09;;;;;;;9.35;6.53;;;;;;;12.86;100.00;101172.03;5044775;28;20040;-71
2021/12/30 06:35:34;;;;;;;11.70;6.43;;;;;;;12.82;100.00;101168.88;5044777;28;20074;-71
2021/12/30 06:38:01;;;;;;;9.43;6.03;;;;;;;12.86;100.00;101174.78;5045504;28;20387;-70
2021/12/30 06:40:27;;;;;;;10.32;6.55;;;;;;;13.02;100.00;101176.81;5044727;28;20527;-71
2021/12/30 06:42:53;;;;;;;10.48;7.00;;;;;;;12.98;100.00;101187.50;5044935;28;20028;-71
2021/12/30 06:45:19;;;;;;;10.98;8.02;;;;;;;12.91;100.00;101185.94;5044657;28;20025;-70
2021/12/30 06:47:45;;;;;;;13.40;9.60;;;;;;;12.88;100.00;101187.25;5044124;28;20086;-70
2021/12/30 06:50:13;;;;;;;14.95;10.40;;;;;;;12.88;100.00;101190.00;5045091;28;20112;-70
2021/12/30 06:52:39;;;;;;;14.95;10.40;;;;;;;12.85;100.00;101184.13;5044990;28;20100;-70
2021/12/30 06:55:05;;;;;;;15.80;11.10;;;;;;;12.96;100.00;101186.88;5043753;28;20021;-70
2021/12/30 06:57:30;;;;;;;14.77;10.85;;;;;;;12.93;100.00;101205.84;5045184;28;20029;-71
2021/12/30 06:59:56;;;;;;;17.40;12.45;;;;;;;12.94;100.00;101200.09;5044402;28;20086;-71
2021/12/30 07:02:22;;;;;;;18.25;11.75;;;;;;;12.93;100.00;101211.34;5030531;28;20518;-71
2021/12/30 07:04:47;;;;;;;16.83;11.85;;;;;;;12.94;100.00;101211.13;5024586;28;20033;-71
2021/12/30 07:07:13;;;;;;;16.70;11.85;;;;;;;12.96;100.00;101214.47;5023636;28;20084;-71
2021/12/30 07:09:38;;;;;;;18.90;12.30;;;;;;;12.96;100.00;101228.25;5024988;28;20048;-71
2021/12/30 07:12:04;;;;;;;18.33;12.88;;;;;;;12.91;100.00;101238.31;5024271;28;20022;-71
2021/12/30 07:14:29;;;;;;;16.60;11.60;;;;;;;12.91;100.00;101233.63;5025021;28;20025;-71
2021/12/30 07:16:55;;;;;;;18.48;12.55;;;;;;;12.91;100.00;101233.63;5024361;28;20017;-71
2021/12/30 07:19:20;;;;;;;16.88;12.00;;;;;;;12.91;100.00;101233.63;5023625;28;20030;-72
2021/12/30 07:21:46;;;;;;;16.65;11.75;;;;;;;12.95;100.00;101229.31;5023920;28;20056;-71
2021/12/30 07:24:11;;;;;;;16.67;10.93;;;;;;;12.91;100.00;101239.16;5024299;28;20064;-71
2021/12/30 07:26:37;;;;;;;17.63;11.63;;;;;;;13.02;100.00;101237.47;5022867;28;20060;-70
2021/12/30 07:29:04;;;;;;;16.70;11.93;;;;;;;12.95;100.00;101239.53;5023835;28;20492;-70
2021/12/30 07:31:30;;;;;;;18.50;12.00;;;;;;;12.92;100.00;101249.09;5024754;28;20037;-71
2021/12/30 07:33:55;;;;;;;17.70;12.15;;;;;;;12.98;100.00;101250.91;5023536;28;20049;-71
2021/12/30 07:36:21;;;;;;;17.50;12.73;;;;;;;13.01;100.00;101260.63;5023713;28;20091;-70
2021/12/30 07:38:48;;;;;;;18.10;11.52;;;;;;;13.11;100.00;101249.84;5024136;28;20022;-71
2021/12/30 07:41:13;;;;;;;18.55;11.55;;;;;;;13.03;100.00;101260.38;5023562;28;20033;-71
2021/12/30 07:43:39;;;;;;;17.55;12.57;;;;;;;13.05;100.00;101255.47;5023892;28;20021;-70
2021/12/30 07:46:06;;;;;;;17.40;11.63;;;;;;;13.03;100.00;101263.13;5023798;28;20022;-70
2021/12/30 07:48:31;;;;;;;18.23;12.47;;;;;;;13.04;100.00;101260.16;5023932;28;20033;-64
2021/12/30 07:50:57;;;;;;;17.05;12.43;;;;;;;13.12;100.00;101267.22;5024302;28;20491;-70
2021/12/30 07:53:22;;;;;;;16.42;12.35;;;;;;;13.04;100.00;101264.84;5023290;28;20099;-70
2021/12/30 07:55:47;;;;;;;17.50;12.13;;;;;;;13.13;100.00;101274.47;5023151;28;20033;-71
2021/12/30 07:58:12;;;;;;;20.27;13.82;;;;;;;13.11;100.00;101271.91;5022405;28;20816;-71
2021/12/30 08:00:38;;;;;;;19.33;13.65;;;;;;;13.06;100.00;101268.19;5023687;28;20022;-70
2021/12/30 08:03:03;;;;;;;18.58;14.13;;;;;;;13.04;100.00;101264.84;5022886;28;20044;-70
2021/12/30 08:05:29;;;;;;;18.08;13.70;;;;;;;13.04;100.00;101270.34;5024046;28;20025;-69
2021/12/30 08:07:54;;;;;;;19.45;14.38;;;;;;;13.06;100.00;101262.66;5023138;28;20076;-71
2021/12/30 08:10:20;;;;;;;17.77;12.52;;;;;;;13.05;100.00;101263.75;5031328;28;20047;-71
2021/12/30 08:12:47;;;;;;;20.17;15.00;;;;;;;12.99;100.00;101277.41;5023601;28;20686;-71
2021/12/30 08:15:13;;;;;;;18.80;14.18;;;;;;;12.97;100.00;101287.81;5021945;28;20032;-71
2021/12/30 08:17:40;;;;;;;20.92;15.63;;;;;;;12.95;100.00;101291.91;5023320;28;20034;-71
2021/12/30 08:20:07;;;;;;;19.55;15.10;;;;;;;13.03;100.00;101302.59;5023672;28;20025;-72
2021/12/30 08:22:33;;;;;;;20.88;15.55;;;;;;;13.06;100.00;101306.78;5023291;28;20018;-70
2021/12/30 08:24:58;;;;;;;21.10;16.00;;;;;;;13.03;100.00;101310.00;5023963;28;20030;-71
2021/12/30 08:27:23;;;;;;;21.45;15.32;;;;;;;13.04;100.00;101311.72;5022744;28;20076;-71
2021/12/30 08:29:49;;;;;;;22.48;15.98;;;;;;;13.09;100.00;101307.16;5022660;28;20065;-71
2021/12/30 08:32:16;;;;;;;22.13;17.08;;;;;;;13.14;99.90;101298.19;5022006;28;20045;-71
2021/12/30 08:34:43;;;;;;;20.88;15.00;;;;;;;13.19;99.37;101295.56;5023010;28;20021;-71
2021/12/30 08:37:08;;;;;;;21.27;15.85;;;;;;;13.16;100.00;101296.88;5022491;28;20029;-71
2021/12/30 08:39:36;;;;;;;23.27;15.45;;;;;;;13.19;99.89;101304.69;5023549;28;20476;-71
2021/12/30 08:42:03;;;;;;;21.65;16.08;;;;;;;13.15;100.00;101313.66;5039901;28;20163;-71
2021/12/30 08:44:28;;;;;;;18.63;14.32;;;;;;;13.21;99.37;101304.44;5043154;28;20033;-72
2021/12/30 08:46:53;;;;;;;18.85;13.70;;;;;;;13.26;98.79;101309.28;5041898;28;20071;-72
2021/12/30 08:49:19;;;;;;;16.30;12.32;;;;;;;13.31;98.51;101317.66;5042175;28;20021;-71
2021/12/30 08:51:44;;;;;;;15.47;10.90;;;;;;;13.32;98.28;101311.91;5042287;28;20025;-72
2021/12/30 08:54:09;;;;;;;14.70;11.10;;;;;;;13.26;98.67;101326.66;5042630;28;20506;-72
2021/12/30 08:56:34;;;;;;;15.98;10.50;;;;;;;13.30;98.13;101330.63;5042265;28;20028;-71
2021/12/30 08:59:00;;;;;;;14.10;9.67;;;;;;;13.33;98.31;101332.94;5043117;28;20479;-71
2021/12/30 09:01:26;;;;;;;14.23;9.70;;;;;;;13.29;98.49;101334.47;5041942;28;20380;-72
2021/12/30 09:03:52;;;;;;;13.90;8.95;;;;;;;13.28;98.65;101335.56;5042067;28;20028;-72
2021/12/30 09:06:17;;;;;;;12.43;8.85;;;;;;;13.29;98.37;101337.22;5041995;28;20702;-72
2021/12/30 09:08:42;;;;;;;13.35;8.65;;;;;;;13.29;98.65;101340.00;5042501;28;20025;-71
2021/12/30 09:11:07;;;;;;;12.80;7.70;;;;;;;13.36;98.27;101335.19;5042024;28;20033;-71
2021/12/30 09:13:33;;;;;;;11.80;7.90;;;;;;;13.42;97.57;101337.00;5042568;28;20063;-71
2021/12/30 09:15:58;;;;;;;14.43;9.57;;;;;;;13.39;98.18;101351.28;5042255;28;20480;-71
2021/12/30 09:18:24;;;;;;;14.02;8.20;;;;;;;13.40;98.05;101349.38;5041165;28;20025;-71
2021/12/30 09:20:50;;;;;;;11.55;7.55;;;;;;;13.46;97.19;101360.28;5042309;28;20024;-71
2021/12/30 09:23:15;;;;;;;12.93;8.15;;;;;;;13.47;97.32;101358.34;5048559;28;20320;-72
2021/12/30 09:25:41;;;;;;;16.40;8.70;;;;;;;13.54;96.43;101361.03;5063007;28;20058;-71
2021/12/30 09:28:12;;;;;;;14.63;8.02;;;;;;;13.66;95.42;101359.13;5066194;28;20020;-71
2021/12/30 09:30:39;;;;;;;12.52;8.02;;;;;;;13.56;96.48;101358.88;5060820;28;20032;-72
2021/12/30 09:33:05;;;;;;;12.95;8.20;;;;;;;13.53;96.64;101351.03;5025554;28;20022;-71
2021/12/30 09:35:31;;;;;;;16.77;8.88;;;;;;;13.59;96.25;101366.69;5027101;28;20036;-72
2021/12/30 09:37:57;;;;;;;15.05;7.82;;;;;;;13.68;95.86;101365.22;5026406;28;20021;-71
2021/12/30 09:40:25;;;;;;;12.45;7.47;;;;;;;13.70;95.58;101363.91;5026046;28;20076;-71
2021/12/30 09:42:54;;;;;;;14.57;7.07;;;;;;;13.75;95.42;101361.28;5026996;28;20384;-71
2021/12/30 09:45:20;;;;;;;13.98;7.20;;;;;;;13.77;94.62;101375.69;5025885;28;20269;-72
2021/12/30 09:47:54;;;;;;;16.88;7.22;;;;;;;13.78;94.63;101384.78;5025729;28;20030;-73
2021/12/30 09:50:23;;;;;;;14.77;6.75;;;;;;;13.90;92.84;101384.81;5025767;28;20032;-72
2021/12/30 09:52:50;;;;;;;14.30;7.25;;;;;;;13.92;91.60;101380.72;5025985;28;20331;-72
2021/12/30 09:55:16;;;;;;;17.20;7.93;;;;;;;13.82;93.46;101385.16;5026262;28;20029;-72
2021/12/30 09:57:41;;;;;;;13.98;6.57;;;;;;;13.82;92.81;101379.66;5024600;28;20522;-72
2021/12/30 10:00:11;;;;;;;12.48;5.72;;;;;;;13.83;92.48;101376.63;5025488;28;20056;-71
2021/12/30 10:02:36;;;;;;;12.65;5.97;;;;;;;13.83;92.44;101375.78;5025131;28;20032;-72
2021/12/30 10:05:07;;;;;;;14.45;6.15;;;;;;;13.85;92.03;101371.72;5025794;28;20380;-71
2021/12/30 10:07:32;;;;;;;16.83;6.38;;;;;;;13.85;91.83;101368.97;5025813;28;20511;-71
2021/12/30 10:10:02;;;;;;;12.05;5.85;;;;;;;13.90;91.50;101362.72;5026175;28;20022;-72
2021/12/30 10:12:39;;;;;;;15.02;6.50;;;;;;;14.06;91.01;101367.53;5025627;28;20059;-72
2021/12/30 10:15:07;;;;;;;13.40;5.90;;;;;;;14.12;90.23;101374.00;5025335;28;20091;-72
2021/12/30 10:17:33;;;;;;;15.35;5.93;;;;;;;14.22;89.81;101380.59;5025003;28;20030;-71
2021/12/30 10:20:17;;;;;;;15.27;6.10;;;;;;;14.22;91.01;101377.84;5025677;28;20068;-72
2021/12/30 10:22:46;;;;;;;15.90;5.43;;;;;;;14.21;90.29;101381.69;5025512;28;20025;-71
2021/12/30 10:25:46;;;;;;;12.20;6.07;;;;;;;14.40;89.23;101385.16;5024953;28;20692;-72
2021/12/30 10:28:17;;;;;;;14.25;6.15;;;;;;;14.28;88.87;101396.19;5002642;28;20461;-72
2021/12/30 10:30:42;;;;;;;15.07;6.45;;;;;;;14.22;88.89;101382.53;5025647;28;20384;-72
2021/12/30 10:33:21;;;;;;;16.33;5.82;;;;;;;14.11;89.66;101386.13;5023031;28;20030;-71
2021/12/30 10:35:48;;;;;;;17.17;6.45;;;;;;;14.09;88.98;101382.75;5024943;28;20472;-72
2021/12/30 10:38:14;;;;;;;14.95;6.05;;;;;;;13.97;89.97;101380.84;5023833;28;20117;-72
2021/12/30 10:40:45;;;;;;;15.88;7.30;;;;;;;13.96;89.72;101395.75;5033119;28;20100;-72
2021/12/30 10:46:04;;;;;;;17.23;5.75;;;;;;;13.99;89.42;101387.00;5045702;28;20109;-72
2021/12/30 10:48:30;;;;;;;17.70;6.13;;;;;;;13.92;89.41;101391.78;5044826;28;20067;-72
2021/12/30 10:51:15;;;;;;;14.02;5.85;;;;;;;13.96;90.57;101392.97;5045396;28;20072;-71
2021/12/30 10:53:40;;;;;;;14.48;5.63;;;;;;;13.95;89.90;101384.94;5045057;28;20100;-72
2021/12/30 10:56:19;;;;;;;15.15;5.72;;;;;;;14.05;89.88;101392.63;5044309;28;20020;-71
2021/12/30 10:58:44;;;;;;;16.63;5.45;;;;;;;14.11;88.93;101398.03;5045066;28;20032;-72
2021/12/30 11:01:18;;;;;;;20.13;6.25;;;;;;;14.18;89.03;101395.13;5044392;28;20487;-71
2021/12/30 11:03:59;;;;;;;15.32;4.97;;;;;;;14.31;88.66;101396.81;5044308;28;20475;-71
2021/12/30 11:06:25;;;;;;;14.27;5.75;;;;;;;14.34;86.92;101391.63;5044098;28;20045;-72
2021/12/30 11:09:14;;;;;;;13.52;5.40;;;;;;;14.29;88.46;101397.03;5044911;28;20040;-72